sensor_id;sensor_type;location;lat;lon;timestamp;P1;durP1;ratioP1;P2;durP2;ratioP2
20271;SDS011;10295;49.812;9.866;2022-07-15T00:02:07;7.60;;;1.37;;
20271;SDS011;10295;49.812;9.866;2022-07-15T00:04:35;5.17;;;1.40;;
20271;SDS011;10295;49.812;9.866;2022-07-15T00:07:02;5.17;;;1.27;;
20271;SDS011;10295;49.812;9.866;2022-07-15T00:09:29;5.73;;;1.30;;
20271;SDS011;10295;49.812;9.866;2022-07-15T00:12:15;5.87;;;1.30;;
20271;SDS011;10295;49.812;9.866;2022-07-15T00:14:42;13.40;;;1.80;;
20271;SDS011;10295;49.812;9.866;2022-07-15T00:17:10;6.03;;;1.33;;
20271;SDS011;10295;49.812;9.866;2022-07-15T00:19:37;9.77;;;1.60;;
20271;SDS011;10295;49.812;9.866;2022-07-15T00:22:05;6.97;;;1.50;;
20271;SDS011;10295;49.812;9.866;2022-07-15T00:24:32;5.30;;;1.30;;
20271;SDS011;10295;49.812;9.866;2022-07-15T00:26:59;7.67;;;1.43;;
20271;SDS011;10295;49.812;9.866;2022-07-15T00:29:28;6.20;;;1.20;;
20271;SDS011;10295;49.812;9.866;2022-07-15T00:31:56;7.00;;;1.50;;
20271;SDS011;10295;49.812;9.866;2022-07-15T00:34:23;7.13;;;1.47;;
20271;SDS011;10295;49.812;9.866;2022-07-15T00:36:50;7.30;;;1.60;;
20271;SDS011;10295;49.812;9.866;2022-07-15T00:39:18;7.03;;;1.30;;
20271;SDS011;10295;49.812;9.866;2022-07-15T00:41:45;6.37;;;1.53;;
20271;SDS011;10295;49.812;9.866;2022-07-15T00:44:12;7.07;;;1.50;;
20271;SDS011;10295;49.812;9.866;2022-07-15T00:46:39;7.10;;;1.30;;
20271;SDS011;10295;49.812;9.866;2022-07-15T00:49:08;7.03;;;1.30;;
20271;SDS011;10295;49.812;9.866;2022-07-15T00:51:46;9.10;;;1.47;;
20271;SDS011;10295;49.812;9.866;2022-07-15T00:54:14;5.83;;;1.20;;
20271;SDS011;10295;49.812;9.866;2022-07-15T00:57:02;8.27;;;1.73;;
20271;SDS011;10295;49.812;9.866;2022-07-15T00:59:30;6.37;;;1.20;;
20271;SDS011;10295;49.812;9.866;2022-07-15T01:01:58;7.47;;;1.40;;
20271;SDS011;10295;49.812;9.866;2022-07-15T01:04:25;4.90;;;1.30;;
20271;SDS011;10295;49.812;9.866;2022-07-15T01:06:54;4.87;;;1.40;;
20271;SDS011;10295;49.812;9.866;2022-07-15T01:09:21;6.77;;;1.40;;
20271;SDS011;10295;49.812;9.866;2022-07-15T01:11:48;6.83;;;1.70;;
20271;SDS011;10295;49.812;9.866;2022-07-15T01:14:16;9.77;;;1.63;;
20271;SDS011;10295;49.812;9.866;2022-07-15T01:16:43;7.87;;;1.40;;
20271;SDS011;10295;49.812;9.866;2022-07-15T01:19:10;10.37;;;1.40;;
20271;SDS011;10295;49.812;9.866;2022-07-15T01:21:37;8.20;;;1.47;;
20271;SDS011;10295;49.812;9.866;2022-07-15T01:24:05;6.00;;;1.20;;
20271;SDS011;10295;49.812;9.866;2022-07-15T01:26:32;7.57;;;1.40;;
20271;SDS011;10295;49.812;9.866;2022-07-15T01:29:00;5.80;;;1.30;;
20271;SDS011;10295;49.812;9.866;2022-07-15T01:31:27;5.30;;;1.13;;
20271;SDS011;10295;49.812;9.866;2022-07-15T01:33:55;7.77;;;1.50;;
20271;SDS011;10295;49.812;9.866;2022-07-15T01:36:22;4.87;;;1.43;;
20271;SDS011;10295;49.812;9.866;2022-07-15T01:38:49;5.80;;;1.40;;
20271;SDS011;10295;49.812;9.866;2022-07-15T01:41:36;6.40;;;1.50;;
20271;SDS011;10295;49.812;9.866;2022-07-15T01:44:04;5.10;;;1.50;;
20271;SDS011;10295;49.812;9.866;2022-07-15T01:46:31;9.10;;;1.60;;
20271;SDS011;10295;49.812;9.866;2022-07-15T01:48:58;5.33;;;1.40;;
20271;SDS011;10295;49.812;9.866;2022-07-15T01:51:44;8.57;;;1.50;;
20271;SDS011;10295;49.812;9.866;2022-07-15T01:54:11;5.93;;;1.90;;
20271;SDS011;10295;49.812;9.866;2022-07-15T01:56:38;7.03;;;1.60;;
20271;SDS011;10295;49.812;9.866;2022-07-15T01:59:05;6.37;;;1.37;;
20271;SDS011;10295;49.812;9.866;2022-07-15T02:01:32;8.10;;;1.60;;
20271;SDS011;10295;49.812;9.866;2022-07-15T02:04:00;7.80;;;1.57;;
20271;SDS011;10295;49.812;9.866;2022-07-15T02:06:27;8.20;;;1.50;;
20271;SDS011;10295;49.812;9.866;2022-07-15T02:08:55;5.20;;;1.30;;
20271;SDS011;10295;49.812;9.866;2022-07-15T02:11:22;6.93;;;1.60;;
20271;SDS011;10295;49.812;9.866;2022-07-15T02:13:50;6.67;;;1.40;;
20271;SDS011;10295;49.812;9.866;2022-07-15T02:16:20;5.93;;;1.47;;
20271;SDS011;10295;49.812;9.866;2022-07-15T02:18:47;6.17;;;1.50;;
20271;SDS011;10295;49.812;9.866;2022-07-15T02:21:14;8.83;;;1.80;;
20271;SDS011;10295;49.812;9.866;2022-07-15T02:23:42;4.47;;;1.50;;
20271;SDS011;10295;49.812;9.866;2022-07-15T02:26:09;6.10;;;1.70;;
20271;SDS011;10295;49.812;9.866;2022-07-15T02:28:36;7.10;;;1.50;;
20271;SDS011;10295;49.812;9.866;2022-07-15T02:31:04;5.20;;;1.63;;
20271;SDS011;10295;49.812;9.866;2022-07-15T02:33:31;8.77;;;1.90;;
20271;SDS011;10295;49.812;9.866;2022-07-15T02:35:59;8.63;;;1.80;;
20271;SDS011;10295;49.812;9.866;2022-07-15T02:38:26;10.17;;;1.73;;
20271;SDS011;10295;49.812;9.866;2022-07-15T02:40:53;5.67;;;1.43;;
20271;SDS011;10295;49.812;9.866;2022-07-15T02:43:20;7.97;;;1.50;;
20271;SDS011;10295;49.812;9.866;2022-07-15T02:45:48;5.40;;;1.60;;
20271;SDS011;10295;49.812;9.866;2022-07-15T02:48:15;5.60;;;1.57;;
20271;SDS011;10295;49.812;9.866;2022-07-15T02:50:42;6.73;;;1.70;;
20271;SDS011;10295;49.812;9.866;2022-07-15T02:53:10;7.33;;;1.57;;
20271;SDS011;10295;49.812;9.866;2022-07-15T02:55:38;5.87;;;1.60;;
20271;SDS011;10295;49.812;9.866;2022-07-15T02:58:05;5.17;;;1.50;;
20271;SDS011;10295;49.812;9.866;2022-07-15T03:00:32;5.67;;;1.70;;
20271;SDS011;10295;49.812;9.866;2022-07-15T03:03:00;8.10;;;1.77;;
20271;SDS011;10295;49.812;9.866;2022-07-15T03:05:27;8.10;;;1.80;;
20271;SDS011;10295;49.812;9.866;2022-07-15T03:07:54;4.73;;;1.60;;
20271;SDS011;10295;49.812;9.866;2022-07-15T03:10:22;8.77;;;1.80;;
20271;SDS011;10295;49.812;9.866;2022-07-15T03:12:49;6.20;;;1.93;;
20271;SDS011;10295;49.812;9.866;2022-07-15T03:15:16;9.77;;;2.03;;
20271;SDS011;10295;49.812;9.866;2022-07-15T03:17:43;6.50;;;1.60;;
20271;SDS011;10295;49.812;9.866;2022-07-15T03:20:11;6.17;;;1.70;;
20271;SDS011;10295;49.812;9.866;2022-07-15T03:22:38;8.77;;;1.70;;
20271;SDS011;10295;49.812;9.866;2022-07-15T03:25:05;7.00;;;1.63;;
20271;SDS011;10295;49.812;9.866;2022-07-15T03:27:33;7.23;;;1.60;;
20271;SDS011;10295;49.812;9.866;2022-07-15T03:30:00;8.40;;;1.73;;
20271;SDS011;10295;49.812;9.866;2022-07-15T03:32:27;5.43;;;1.60;;
20271;SDS011;10295;49.812;9.866;2022-07-15T03:34:54;8.13;;;1.70;;
20271;SDS011;10295;49.812;9.866;2022-07-15T03:37:25;10.43;;;1.90;;
20271;SDS011;10295;49.812;9.866;2022-07-15T03:39:52;8.73;;;1.80;;
20271;SDS011;10295;49.812;9.866;2022-07-15T03:42:19;5.50;;;1.77;;
20271;SDS011;10295;49.812;9.866;2022-07-15T03:44:46;9.67;;;1.60;;
20271;SDS011;10295;49.812;9.866;2022-07-15T03:47:14;7.67;;;1.67;;
20271;SDS011;10295;49.812;9.866;2022-07-15T03:49:41;5.57;;;1.70;;
20271;SDS011;10295;49.812;9.866;2022-07-15T03:52:08;6.60;;;1.63;;
20271;SDS011;10295;49.812;9.866;2022-07-15T03:54:35;8.03;;;2.00;;
20271;SDS011;10295;49.812;9.866;2022-07-15T03:57:03;7.10;;;1.60;;
20271;SDS011;10295;49.812;9.866;2022-07-15T03:59:30;6.17;;;1.60;;
20271;SDS011;10295;49.812;9.866;2022-07-15T04:01:57;8.50;;;1.67;;
20271;SDS011;10295;49.812;9.866;2022-07-15T04:04:24;7.23;;;1.97;;
20271;SDS011;10295;49.812;9.866;2022-07-15T04:06:51;11.97;;;1.93;;
20271;SDS011;10295;49.812;9.866;2022-07-15T04:09:19;5.57;;;1.50;;
20271;SDS011;10295;49.812;9.866;2022-07-15T04:11:46;7.37;;;1.50;;
20271;SDS011;10295;49.812;9.866;2022-07-15T04:14:13;8.33;;;2.00;;
20271;SDS011;10295;49.812;9.866;2022-07-15T04:16:41;8.20;;;1.70;;
20271;SDS011;10295;49.812;9.866;2022-07-15T04:19:08;6.30;;;1.70;;
20271;SDS011;10295;49.812;9.866;2022-07-15T04:21:36;4.63;;;1.83;;
20271;SDS011;10295;49.812;9.866;2022-07-15T04:24:03;3.90;;;1.40;;
20271;SDS011;10295;49.812;9.866;2022-07-15T04:26:30;5.83;;;1.47;;
20271;SDS011;10295;49.812;9.866;2022-07-15T04:28:57;5.83;;;1.40;;
20271;SDS011;10295;49.812;9.866;2022-07-15T04:31:24;9.17;;;1.63;;
20271;SDS011;10295;49.812;9.866;2022-07-15T04:33:52;8.17;;;1.70;;
20271;SDS011;10295;49.812;9.866;2022-07-15T04:36:19;9.50;;;1.53;;
20271;SDS011;10295;49.812;9.866;2022-07-15T04:38:46;8.50;;;1.73;;
20271;SDS011;10295;49.812;9.866;2022-07-15T04:41:13;7.85;;;1.60;;
20271;SDS011;10295;49.812;9.866;2022-07-15T04:43:41;4.88;;;1.48;;
20271;SDS011;10295;49.812;9.866;2022-07-15T04:46:08;4.05;;;1.30;;
20271;SDS011;10295;49.812;9.866;2022-07-15T04:48:35;6.17;;;1.30;;
20271;SDS011;10295;49.812;9.866;2022-07-15T04:51:21;6.33;;;1.43;;
20271;SDS011;10295;49.812;9.866;2022-07-15T04:53:48;9.50;;;1.70;;
20271;SDS011;10295;49.812;9.866;2022-07-15T04:56:16;5.50;;;1.37;;
20271;SDS011;10295;49.812;9.866;2022-07-15T04:58:43;5.57;;;1.57;;
20271;SDS011;10295;49.812;9.866;2022-07-15T05:01:10;7.47;;;1.60;;
20271;SDS011;10295;49.812;9.866;2022-07-15T05:03:39;6.47;;;1.70;;
20271;SDS011;10295;49.812;9.866;2022-07-15T05:06:06;7.60;;;1.60;;
20271;SDS011;10295;49.812;9.866;2022-07-15T05:08:33;6.80;;;1.70;;
20271;SDS011;10295;49.812;9.866;2022-07-15T05:11:01;6.47;;;1.67;;
20271;SDS011;10295;49.812;9.866;2022-07-15T05:13:28;6.07;;;1.37;;
20271;SDS011;10295;49.812;9.866;2022-07-15T05:15:55;7.47;;;1.60;;
20271;SDS011;10295;49.812;9.866;2022-07-15T05:18:23;7.70;;;1.58;;
20271;SDS011;10295;49.812;9.866;2022-07-15T05:20:52;7.25;;;1.70;;
20271;SDS011;10295;49.812;9.866;2022-07-15T05:23:19;4.22;;;1.40;;
20271;SDS011;10295;49.812;9.866;2022-07-15T05:25:46;10.48;;;1.90;;
20271;SDS011;10295;49.812;9.866;2022-07-15T05:28:13;4.32;;;1.20;;
20271;SDS011;10295;49.812;9.866;2022-07-15T05:30:40;8.05;;;1.80;;
20271;SDS011;10295;49.812;9.866;2022-07-15T05:33:08;5.75;;;1.45;;
20271;SDS011;10295;49.812;9.866;2022-07-15T05:35:35;8.07;;;1.38;;
20271;SDS011;10295;49.812;9.866;2022-07-15T05:38:02;7.60;;;1.60;;
20271;SDS011;10295;49.812;9.866;2022-07-15T05:40:29;4.88;;;1.67;;
20271;SDS011;10295;49.812;9.866;2022-07-15T05:42:57;8.15;;;1.77;;
20271;SDS011;10295;49.812;9.866;2022-07-15T05:45:24;5.03;;;1.60;;
20271;SDS011;10295;49.812;9.866;2022-07-15T05:47:51;7.05;;;1.90;;
20271;SDS011;10295;49.812;9.866;2022-07-15T05:50:19;7.28;;;1.70;;
20271;SDS011;10295;49.812;9.866;2022-07-15T05:52:46;8.93;;;1.70;;
20271;SDS011;10295;49.812;9.866;2022-07-15T05:55:14;6.32;;;1.50;;
20271;SDS011;10295;49.812;9.866;2022-07-15T05:57:41;7.53;;;1.80;;
20271;SDS011;10295;49.812;9.866;2022-07-15T06:00:11;6.90;;;1.75;;
20271;SDS011;10295;49.812;9.866;2022-07-15T06:02:39;7.88;;;1.92;;
20271;SDS011;10295;49.812;9.866;2022-07-15T06:05:06;6.97;;;1.80;;
20271;SDS011;10295;49.812;9.866;2022-07-15T06:07:34;9.10;;;1.65;;
20271;SDS011;10295;49.812;9.866;2022-07-15T06:10:02;7.03;;;1.63;;
20271;SDS011;10295;49.812;9.866;2022-07-15T06:12:30;6.78;;;1.70;;
20271;SDS011;10295;49.812;9.866;2022-07-15T06:14:57;5.82;;;1.63;;
20271;SDS011;10295;49.812;9.866;2022-07-15T06:17:24;8.27;;;1.77;;
20271;SDS011;10295;49.812;9.866;2022-07-15T06:19:51;8.68;;;1.60;;
20271;SDS011;10295;49.812;9.866;2022-07-15T06:22:18;7.28;;;1.52;;
20271;SDS011;10295;49.812;9.866;2022-07-15T06:24:46;12.93;;;2.17;;
20271;SDS011;10295;49.812;9.866;2022-07-15T06:27:13;6.00;;;1.60;;
20271;SDS011;10295;49.812;9.866;2022-07-15T06:29:40;6.65;;;1.50;;
20271;SDS011;10295;49.812;9.866;2022-07-15T06:32:07;5.70;;;1.50;;
20271;SDS011;10295;49.812;9.866;2022-07-15T06:34:34;7.55;;;1.70;;
20271;SDS011;10295;49.812;9.866;2022-07-15T06:37:01;6.93;;;1.60;;
20271;SDS011;10295;49.812;9.866;2022-07-15T06:39:29;7.60;;;1.65;;
20271;SDS011;10295;49.812;9.866;2022-07-15T06:41:56;7.38;;;1.73;;
20271;SDS011;10295;49.812;9.866;2022-07-15T06:44:23;7.03;;;1.40;;
20271;SDS011;10295;49.812;9.866;2022-07-15T06:46:50;5.78;;;1.42;;
20271;SDS011;10295;49.812;9.866;2022-07-15T06:49:25;6.68;;;1.65;;
20271;SDS011;10295;49.812;9.866;2022-07-15T06:51:52;5.78;;;1.40;;
20271;SDS011;10295;49.812;9.866;2022-07-15T06:54:19;9.50;;;1.70;;
20271;SDS011;10295;49.812;9.866;2022-07-15T06:56:46;6.95;;;1.30;;
20271;SDS011;10295;49.812;9.866;2022-07-15T06:59:14;7.13;;;1.38;;
20271;SDS011;10295;49.812;9.866;2022-07-15T07:01:41;7.55;;;1.40;;
20271;SDS011;10295;49.812;9.866;2022-07-15T07:04:08;6.97;;;1.30;;
20271;SDS011;10295;49.812;9.866;2022-07-15T07:06:35;11.05;;;1.60;;
20271;SDS011;10295;49.812;9.866;2022-07-15T07:09:03;7.13;;;1.50;;
20271;SDS011;10295;49.812;9.866;2022-07-15T07:11:30;5.45;;;1.30;;
20271;SDS011;10295;49.812;9.866;2022-07-15T07:13:59;7.53;;;1.40;;
20271;SDS011;10295;49.812;9.866;2022-07-15T07:16:26;6.88;;;1.65;;
20271;SDS011;10295;49.812;9.866;2022-07-15T07:18:53;6.95;;;1.38;;
20271;SDS011;10295;49.812;9.866;2022-07-15T07:21:20;8.60;;;1.52;;
20271;SDS011;10295;49.812;9.866;2022-07-15T07:23:56;13.38;;;1.50;;
20271;SDS011;10295;49.812;9.866;2022-07-15T07:26:24;6.55;;;1.30;;
20271;SDS011;10295;49.812;9.866;2022-07-15T07:28:51;6.25;;;1.23;;
20271;SDS011;10295;49.812;9.866;2022-07-15T07:31:18;9.23;;;1.55;;
20271;SDS011;10295;49.812;9.866;2022-07-15T07:33:57;9.80;;;1.60;;
20271;SDS011;10295;49.812;9.866;2022-07-15T07:36:25;10.45;;;1.67;;
20271;SDS011;10295;49.812;9.866;2022-07-15T07:38:52;8.30;;;1.63;;
20271;SDS011;10295;49.812;9.866;2022-07-15T07:41:19;7.88;;;1.45;;
20271;SDS011;10295;49.812;9.866;2022-07-15T07:43:46;7.18;;;1.48;;
20271;SDS011;10295;49.812;9.866;2022-07-15T07:46:14;7.53;;;1.65;;
20271;SDS011;10295;49.812;9.866;2022-07-15T07:48:43;13.75;;;1.65;;
20271;SDS011;10295;49.812;9.866;2022-07-15T07:51:10;5.20;;;1.30;;
20271;SDS011;10295;49.812;9.866;2022-07-15T07:53:37;8.80;;;1.65;;
20271;SDS011;10295;49.812;9.866;2022-07-15T07:56:05;6.47;;;1.58;;
20271;SDS011;10295;49.812;9.866;2022-07-15T07:58:32;6.53;;;1.70;;
20271;SDS011;10295;49.812;9.866;2022-07-15T08:01:00;13.75;;;1.70;;
20271;SDS011;10295;49.812;9.866;2022-07-15T08:03:27;11.88;;;1.40;;
20271;SDS011;10295;49.812;9.866;2022-07-15T08:05:54;9.57;;;2.03;;
20271;SDS011;10295;49.812;9.866;2022-07-15T08:08:22;7.85;;;1.80;;
20271;SDS011;10295;49.812;9.866;2022-07-15T08:10:50;10.90;;;1.80;;
20271;SDS011;10295;49.812;9.866;2022-07-15T08:13:18;10.15;;;1.73;;
20271;SDS011;10295;49.812;9.866;2022-07-15T08:15:46;8.60;;;1.55;;
20271;SDS011;10295;49.812;9.866;2022-07-15T08:18:17;10.45;;;1.58;;
20271;SDS011;10295;49.812;9.866;2022-07-15T08:20:46;10.43;;;1.45;;
20271;SDS011;10295;49.812;9.866;2022-07-15T08:23:14;6.65;;;1.20;;
20271;SDS011;10295;49.812;9.866;2022-07-15T08:25:47;7.43;;;1.40;;
20271;SDS011;10295;49.812;9.866;2022-07-15T08:28:15;8.15;;;1.20;;
20271;SDS011;10295;49.812;9.866;2022-07-15T08:30:44;6.15;;;1.10;;
20271;SDS011;10295;49.812;9.866;2022-07-15T08:33:12;5.18;;;1.10;;
20271;SDS011;10295;49.812;9.866;2022-07-15T08:35:40;5.82;;;1.20;;
20271;SDS011;10295;49.812;9.866;2022-07-15T08:38:08;7.78;;;1.20;;
20271;SDS011;10295;49.812;9.866;2022-07-15T08:40:36;5.10;;;1.20;;
20271;SDS011;10295;49.812;9.866;2022-07-15T08:43:07;6.65;;;1.20;;
20271;SDS011;10295;49.812;9.866;2022-07-15T08:45:35;8.30;;;1.20;;
20271;SDS011;10295;49.812;9.866;2022-07-15T08:48:07;3.92;;;1.10;;
20271;SDS011;10295;49.812;9.866;2022-07-15T08:50:35;9.55;;;1.30;;
20271;SDS011;10295;49.812;9.866;2022-07-15T08:53:03;7.72;;;1.30;;
20271;SDS011;10295;49.812;9.866;2022-07-15T08:55:30;7.43;;;1.50;;
20271;SDS011;10295;49.812;9.866;2022-07-15T08:57:57;5.57;;;1.17;;
20271;SDS011;10295;49.812;9.866;2022-07-15T09:00:25;5.00;;;1.10;;
20271;SDS011;10295;49.812;9.866;2022-07-15T09:02:59;7.63;;;1.38;;
20271;SDS011;10295;49.812;9.866;2022-07-15T09:05:31;4.18;;;1.20;;
20271;SDS011;10295;49.812;9.866;2022-07-15T09:08:01;6.80;;;1.10;;
20271;SDS011;10295;49.812;9.866;2022-07-15T09:13:34;5.72;;;1.35;;
20271;SDS011;10295;49.812;9.866;2022-07-15T09:18:30;5.28;;;1.15;;
20271;SDS011;10295;49.812;9.866;2022-07-15T09:20:59;6.38;;;1.40;;
20271;SDS011;10295;49.812;9.866;2022-07-15T09:23:28;6.05;;;1.20;;
20271;SDS011;10295;49.812;9.866;2022-07-15T09:25:59;5.15;;;1.50;;
20271;SDS011;10295;49.812;9.866;2022-07-15T09:28:37;5.30;;;1.00;;
20271;SDS011;10295;49.812;9.866;2022-07-15T09:31:05;6.78;;;1.30;;
20271;SDS011;10295;49.812;9.866;2022-07-15T09:33:57;4.90;;;1.08;;
20271;SDS011;10295;49.812;9.866;2022-07-15T09:36:26;6.88;;;1.08;;
20271;SDS011;10295;49.812;9.866;2022-07-15T09:39:01;3.83;;;1.08;;
20271;SDS011;10295;49.812;9.866;2022-07-15T09:41:36;8.15;;;1.30;;
20271;SDS011;10295;49.812;9.866;2022-07-15T09:44:14;8.07;;;1.40;;
20271;SDS011;10295;49.812;9.866;2022-07-15T09:46:46;7.55;;;1.25;;
20271;SDS011;10295;49.812;9.866;2022-07-15T09:49:15;5.65;;;1.20;;
20271;SDS011;10295;49.812;9.866;2022-07-15T09:51:45;5.70;;;1.20;;
20271;SDS011;10295;49.812;9.866;2022-07-15T09:54:12;5.70;;;1.30;;
20271;SDS011;10295;49.812;9.866;2022-07-15T09:56:39;7.00;;;1.50;;
20271;SDS011;10295;49.812;9.866;2022-07-15T09:59:08;6.15;;;1.20;;
20271;SDS011;10295;49.812;9.866;2022-07-15T10:01:35;6.85;;;1.27;;
20271;SDS011;10295;49.812;9.866;2022-07-15T10:04:03;6.28;;;1.17;;
20271;SDS011;10295;49.812;9.866;2022-07-15T10:06:31;6.97;;;1.48;;
20271;SDS011;10295;49.812;9.866;2022-07-15T10:08:58;5.45;;;1.30;;
20271;SDS011;10295;49.812;9.866;2022-07-15T10:11:26;8.00;;;1.40;;
20271;SDS011;10295;49.812;9.866;2022-07-15T10:13:57;7.85;;;1.50;;
20271;SDS011;10295;49.812;9.866;2022-07-15T10:26:54;6.63;;;1.33;;
20271;SDS011;10295;49.812;9.866;2022-07-15T10:29:22;5.95;;;1.33;;
20271;SDS011;10295;49.812;9.866;2022-07-15T10:31:56;5.97;;;1.45;;
20271;SDS011;10295;49.812;9.866;2022-07-15T10:34:37;7.05;;;1.70;;
20271;SDS011;10295;49.812;9.866;2022-07-15T10:37:05;9.50;;;1.70;;
20271;SDS011;10295;49.812;9.866;2022-07-15T10:42:14;9.27;;;1.60;;
20271;SDS011;10295;49.812;9.866;2022-07-15T10:45:15;5.57;;;1.38;;
20271;SDS011;10295;49.812;9.866;2022-07-15T10:47:35;6.00;;;1.40;;
20271;SDS011;10295;49.812;9.866;2022-07-15T10:52:48;8.50;;;1.42;;
20271;SDS011;10295;49.812;9.866;2022-07-15T10:55:35;5.30;;;1.35;;
20271;SDS011;10295;49.812;9.866;2022-07-15T10:58:02;5.93;;;1.30;;
20271;SDS011;10295;49.812;9.866;2022-07-15T11:00:31;6.45;;;1.50;;
20271;SDS011;10295;49.812;9.866;2022-07-15T11:03:10;7.50;;;1.80;;
20271;SDS011;10295;49.812;9.866;2022-07-15T11:05:42;7.75;;;1.50;;
20271;SDS011;10295;49.812;9.866;2022-07-15T11:13:43;6.78;;;1.30;;
20271;SDS011;10295;49.812;9.866;2022-07-15T11:16:14;9.32;;;1.60;;
20271;SDS011;10295;49.812;9.866;2022-07-15T11:21:12;8.50;;;1.60;;
20271;SDS011;10295;49.812;9.866;2022-07-15T11:23:40;8.07;;;1.65;;
20271;SDS011;10295;49.812;9.866;2022-07-15T11:26:09;9.38;;;1.48;;
20271;SDS011;10295;49.812;9.866;2022-07-15T11:28:37;10.48;;;1.70;;
20271;SDS011;10295;49.812;9.866;2022-07-15T11:31:04;8.07;;;1.33;;
20271;SDS011;10295;49.812;9.866;2022-07-15T11:33:31;5.53;;;1.27;;
20271;SDS011;10295;49.812;9.866;2022-07-15T11:35:59;7.70;;;1.42;;
20271;SDS011;10295;49.812;9.866;2022-07-15T11:38:28;3.85;;;1.42;;
20271;SDS011;10295;49.812;9.866;2022-07-15T11:40:56;5.13;;;1.52;;
20271;SDS011;10295;49.812;9.866;2022-07-15T11:44:01;7.47;;;1.52;;
20271;SDS011;10295;49.812;9.866;2022-07-15T11:46:47;5.13;;;1.40;;
20271;SDS011;10295;49.812;9.866;2022-07-15T11:49:31;5.32;;;1.38;;
20271;SDS011;10295;49.812;9.866;2022-07-15T11:51:59;6.10;;;1.67;;
20271;SDS011;10295;49.812;9.866;2022-07-15T11:54:26;7.07;;;1.50;;
20271;SDS011;10295;49.812;9.866;2022-07-15T11:56:54;6.28;;;1.65;;
20271;SDS011;10295;49.812;9.866;2022-07-15T11:59:22;7.55;;;1.60;;
20271;SDS011;10295;49.812;9.866;2022-07-15T12:01:59;6.93;;;1.70;;
20271;SDS011;10295;49.812;9.866;2022-07-15T12:04:27;6.70;;;1.60;;
20271;SDS011;10295;49.812;9.866;2022-07-15T12:06:54;8.60;;;1.60;;
20271;SDS011;10295;49.812;9.866;2022-07-15T12:09:21;4.47;;;1.40;;
20271;SDS011;10295;49.812;9.866;2022-07-15T12:11:48;4.63;;;1.50;;
20271;SDS011;10295;49.812;9.866;2022-07-15T12:14:19;5.60;;;1.63;;
20271;SDS011;10295;49.812;9.866;2022-07-15T12:16:56;8.32;;;1.60;;
20271;SDS011;10295;49.812;9.866;2022-07-15T12:19:25;10.60;;;1.80;;
20271;SDS011;10295;49.812;9.866;2022-07-15T12:21:54;5.82;;;1.70;;
20271;SDS011;10295;49.812;9.866;2022-07-15T12:24:22;6.20;;;1.77;;
20271;SDS011;10295;49.812;9.866;2022-07-15T12:29:17;7.68;;;1.63;;
20271;SDS011;10295;49.812;9.866;2022-07-15T12:34:27;6.90;;;1.70;;
20271;SDS011;10295;49.812;9.866;2022-07-15T12:37:09;7.75;;;1.80;;
20271;SDS011;10295;49.812;9.866;2022-07-15T12:42:22;8.70;;;1.75;;
20271;SDS011;10295;49.812;9.866;2022-07-15T12:50:25;6.25;;;1.60;;
20271;SDS011;10295;49.812;9.866;2022-07-15T12:52:54;7.35;;;1.70;;
20271;SDS011;10295;49.812;9.866;2022-07-15T12:55:23;5.65;;;1.77;;
20271;SDS011;10295;49.812;9.866;2022-07-15T12:57:51;7.10;;;1.98;;
20271;SDS011;10295;49.812;9.866;2022-07-15T13:00:19;7.25;;;1.98;;
20271;SDS011;10295;49.812;9.866;2022-07-15T13:03:22;7.07;;;1.77;;
20271;SDS011;10295;49.812;9.866;2022-07-15T13:05:49;6.28;;;1.50;;
20271;SDS011;10295;49.812;9.866;2022-07-15T13:08:17;9.77;;;1.73;;
20271;SDS011;10295;49.812;9.866;2022-07-15T13:10:45;5.88;;;1.88;;
20271;SDS011;10295;49.812;9.866;2022-07-15T13:13:15;7.75;;;1.73;;
20271;SDS011;10295;49.812;9.866;2022-07-15T13:15:43;7.75;;;1.73;;
20271;SDS011;10295;49.812;9.866;2022-07-15T13:18:10;7.43;;;2.10;;
20271;SDS011;10295;49.812;9.866;2022-07-15T13:20:38;8.05;;;1.83;;
20271;SDS011;10295;49.812;9.866;2022-07-15T13:23:05;8.50;;;1.80;;
20271;SDS011;10295;49.812;9.866;2022-07-15T13:25:32;7.68;;;1.88;;
20271;SDS011;10295;49.812;9.866;2022-07-15T13:28:03;6.47;;;1.95;;
20271;SDS011;10295;49.812;9.866;2022-07-15T13:30:31;7.22;;;2.00;;
20271;SDS011;10295;49.812;9.866;2022-07-15T13:32:59;6.65;;;2.20;;
20271;SDS011;10295;49.812;9.866;2022-07-15T13:35:26;7.68;;;1.95;;
20271;SDS011;10295;49.812;9.866;2022-07-15T13:37:53;8.18;;;2.25;;
20271;SDS011;10295;49.812;9.866;2022-07-15T13:40:21;6.45;;;2.00;;
20271;SDS011;10295;49.812;9.866;2022-07-15T13:42:48;4.78;;;1.73;;
20271;SDS011;10295;49.812;9.866;2022-07-15T13:45:15;7.55;;;2.08;;
20271;SDS011;10295;49.812;9.866;2022-07-15T13:47:42;6.50;;;2.00;;
20271;SDS011;10295;49.812;9.866;2022-07-15T13:50:10;6.70;;;2.03;;
20271;SDS011;10295;49.812;9.866;2022-07-15T13:52:56;6.88;;;2.10;;
20271;SDS011;10295;49.812;9.866;2022-07-15T13:55:24;5.82;;;2.15;;
20271;SDS011;10295;49.812;9.866;2022-07-15T13:57:51;5.90;;;2.03;;
20271;SDS011;10295;49.812;9.866;2022-07-15T14:00:20;8.30;;;2.10;;
20271;SDS011;10295;49.812;9.866;2022-07-15T14:02:48;7.68;;;2.17;;
20271;SDS011;10295;49.812;9.866;2022-07-15T14:05:16;6.50;;;2.20;;
20271;SDS011;10295;49.812;9.866;2022-07-15T14:07:43;5.93;;;2.00;;
20271;SDS011;10295;49.812;9.866;2022-07-15T14:10:11;5.38;;;1.92;;
20271;SDS011;10295;49.812;9.866;2022-07-15T14:12:38;3.88;;;1.70;;
20271;SDS011;10295;49.812;9.866;2022-07-15T14:15:06;5.30;;;1.80;;
20271;SDS011;10295;49.812;9.866;2022-07-15T14:17:33;8.88;;;2.00;;
20271;SDS011;10295;49.812;9.866;2022-07-15T14:20:00;8.85;;;1.95;;
20271;SDS011;10295;49.812;9.866;2022-07-15T14:22:28;6.50;;;1.83;;
20271;SDS011;10295;49.812;9.866;2022-07-15T14:24:57;7.18;;;2.17;;
20271;SDS011;10295;49.812;9.866;2022-07-15T14:27:24;8.27;;;2.13;;
20271;SDS011;10295;49.812;9.866;2022-07-15T14:29:51;6.80;;;2.08;;
20271;SDS011;10295;49.812;9.866;2022-07-15T14:32:27;15.10;;;2.17;;
20271;SDS011;10295;49.812;9.866;2022-07-15T14:34:57;7.82;;;2.17;;
20271;SDS011;10295;49.812;9.866;2022-07-15T14:37:25;6.70;;;1.90;;
20271;SDS011;10295;49.812;9.866;2022-07-15T14:39:59;5.85;;;1.98;;
20271;SDS011;10295;49.812;9.866;2022-07-15T14:42:26;5.43;;;2.00;;
20271;SDS011;10295;49.812;9.866;2022-07-15T14:44:54;6.13;;;1.98;;
20271;SDS011;10295;49.812;9.866;2022-07-15T14:47:21;6.03;;;1.88;;
20271;SDS011;10295;49.812;9.866;2022-07-15T14:49:48;5.05;;;1.80;;
20271;SDS011;10295;49.812;9.866;2022-07-15T14:52:15;6.20;;;1.83;;
20271;SDS011;10295;49.812;9.866;2022-07-15T14:54:42;7.90;;;2.00;;
20271;SDS011;10295;49.812;9.866;2022-07-15T14:57:10;7.30;;;1.98;;
20271;SDS011;10295;49.812;9.866;2022-07-15T14:59:37;7.68;;;2.08;;
20271;SDS011;10295;49.812;9.866;2022-07-15T15:02:06;7.38;;;2.05;;
20271;SDS011;10295;49.812;9.866;2022-07-15T15:04:33;7.55;;;2.17;;
20271;SDS011;10295;49.812;9.866;2022-07-15T15:07:01;6.85;;;2.35;;
20271;SDS011;10295;49.812;9.866;2022-07-15T15:09:28;5.35;;;1.95;;
20271;SDS011;10295;49.812;9.866;2022-07-15T15:11:55;6.13;;;2.17;;
20271;SDS011;10295;49.812;9.866;2022-07-15T15:14:27;7.28;;;2.00;;
20271;SDS011;10295;49.812;9.866;2022-07-15T15:16:54;6.38;;;2.03;;
20271;SDS011;10295;49.812;9.866;2022-07-15T15:19:28;6.28;;;1.90;;
20271;SDS011;10295;49.812;9.866;2022-07-15T15:21:55;6.85;;;2.10;;
20271;SDS011;10295;49.812;9.866;2022-07-15T15:24:22;6.20;;;2.13;;
20271;SDS011;10295;49.812;9.866;2022-07-15T15:26:50;5.85;;;2.25;;
20271;SDS011;10295;49.812;9.866;2022-07-15T15:29:18;6.20;;;1.90;;
20271;SDS011;10295;49.812;9.866;2022-07-15T15:31:46;8.85;;;2.35;;
20271;SDS011;10295;49.812;9.866;2022-07-15T15:34:15;6.82;;;2.20;;
20271;SDS011;10295;49.812;9.866;2022-07-15T15:36:43;6.53;;;2.05;;
20271;SDS011;10295;49.812;9.866;2022-07-15T15:39:11;6.85;;;2.30;;
20271;SDS011;10295;49.812;9.866;2022-07-15T15:41:39;6.55;;;1.80;;